Time;durP1;ratioP1;P1;durP2;ratioP2;P2;SDS_P1;SDS_P2;PMS_P1;PMS_P2;Temp;Humidity;BMP_temperature;BMP_pressure;BME280_temperature;BME280_humidity;BME280_pressure;Samples;Min_cycle;Max_cycle;Signal;HPM_P1;HPM_P2
2021/12/28 00:01:12;;;;;;;22.10;11.65;;;;;;;;;;5069479;28;20032;-69
2021/12/28 00:03:42;;;;;;;24.98;12.05;;;;;;;;;;5069584;28;20078;-69
2021/12/28 00:06:09;;;;;;;27.50;12.23;;;;;;;;;;5068798;28;20144;-69
2021/12/28 00:08:36;;;;;;;24.00;11.65;;;;;;;;;;5050293;28;20024;-70
2021/12/28 00:11:02;;;;;;;23.52;12.48;;;;;;;;;;5049879;28;20032;-69
2021/12/28 00:13:30;;;;;;;26.40;13.48;;;;;;;;;;5048562;28;20044;-70
2021/12/28 00:18:22;;;;;;;23.08;12.82;;;;;;;;;;5050040;28;20124;-69
2021/12/28 00:20:52;;;;;;;48.33;29.33;;;;;;;;;;5048576;28;20388;-70
2021/12/28 00:23:24;;;;;;;25.17;13.95;;;;;;;;;;5047448;28;20074;-69
2021/12/28 00:25:51;;;;;;;26.45;12.45;;;;;;;;;;5048939;28;20071;-69
2021/12/28 00:28:17;;;;;;;21.98;11.18;;;;;;;;;;5048533;28;20025;-69
2021/12/28 00:30:43;;;;;;;22.60;10.65;;;;;;;;;;5050124;28;20029;-69
2021/12/28 00:33:09;;;;;;;21.42;11.40;;;;;;;;;;5047953;28;20024;-69
2021/12/28 00:35:37;;;;;;;22.73;11.65;;;;;;;;;;5049580;28;20156;-69
2021/12/28 00:38:04;;;;;;;22.25;11.40;;;;;;;;;;5049678;28;20021;-69
2021/12/28 00:40:30;;;;;;;21.88;11.15;;;;;;;;;;5049562;28;20028;-71
2021/12/28 00:42:56;;;;;;;21.52;10.38;;;;;;;;;;5056427;28;20032;-70
2021/12/28 00:45:22;;;;;;;22.88;11.43;;;;;;;;;;5072315;28;20031;-70
2021/12/28 00:47:48;;;;;;;21.05;10.05;;;;;;;;;;5071084;28;20051;-69
2021/12/28 00:50:15;;;;;;;21.60;10.48;;;;;;;;;;5072473;28;20472;-69
2021/12/28 00:52:41;;;;;;;21.40;9.57;;;;;;;;;;5071318;28;20029;-70
2021/12/28 00:55:08;;;;;;;20.00;9.43;;;;;;;;;;5072190;28;20023;-69
2021/12/28 00:57:34;;;;;;;21.90;9.60;;;;;;;;;;5071681;28;20025;-70
2021/12/28 01:00:01;;;;;;;21.58;10.18;;;;;;;;;;5070922;28;20020;-69
2021/12/28 01:02:27;;;;;;;23.80;9.90;;;;;;;;;;5069818;28;20024;-70
2021/12/28 01:04:53;;;;;;;22.20;10.23;;;;;;;;;;5071940;28;20469;-70
2021/12/28 01:07:19;;;;;;;20.38;10.35;;;;;;;;;;5072323;28;20737;-70
2021/12/28 01:09:45;;;;;;;22.48;9.70;;;;;;;;;;5071990;28;20527;-69
2021/12/28 01:12:11;;;;;;;21.05;10.27;;;;;;;;;;5069656;28;20078;-70
2021/12/28 01:14:38;;;;;;;19.73;9.45;;;;;;;;;;5071780;28;20627;-69
2021/12/28 01:17:04;;;;;;;23.25;10.50;;;;;;;;;;5070285;28;20051;-69
2021/12/28 01:19:30;;;;;;;19.75;8.98;;;;;;;;;;5070420;28;20538;-70
2021/12/28 01:21:56;;;;;;;21.70;9.70;;;;;;;;;;5069722;28;20025;-70
2021/12/28 01:24:22;;;;;;;20.90;9.35;;;6.50;99.90;;;;;;5089755;23;20121;-68
2021/12/28 01:26:48;;;;;;;21.10;9.48;;;6.80;99.90;;;;;;5093231;28;20107;-67
2021/12/28 01:29:14;;;;;;;21.65;10.73;;;6.80;99.90;;;;;;5074891;28;20020;-68
2021/12/28 01:31:40;;;;;;;20.00;10.18;;;6.70;99.90;;;;;;5074571;28;20442;-67
2021/12/28 01:34:07;;;;;;;18.90;8.85;;;6.70;99.90;;;;;;5092850;28;20028;-68
2021/12/28 01:36:33;;;;;;;23.23;9.68;;;6.60;99.90;;;;;;5092883;28;20522;-71
2021/12/28 01:39:00;;;;;;;20.85;10.95;;;;;;;;;;5093064;28;20020;-69
2021/12/28 01:41:26;;;;;;;22.30;10.48;;;;;;;;;;5074722;28;20024;-69
2021/12/28 01:43:56;;;;;;;20.05;9.63;;;;;;;;;;5074151;28;20046;-69
2021/12/28 01:46:22;;;;;;;20.42;9.82;;;;;;;;;;5074674;28;20472;-68
2021/12/28 01:48:48;;;;;;;19.60;9.20;;;;;;;;;;5074710;28;20028;-68
2021/12/28 01:51:18;;;;;;;20.13;9.93;;;;;;;;;;5092585;28;20055;-68
2021/12/28 01:53:45;;;;;;;20.38;9.38;;;;;;;;;;5092049;28;20024;-68
2021/12/28 01:56:12;;;;;;;18.92;9.05;;;;;;;;;;5092699;28;20032;-68
2021/12/28 01:58:38;;;;;;;19.73;9.15;;;;;;;;;;5074426;28;20495;-68
2021/12/28 02:01:05;;;;;;;20.08;9.18;;;;;;;;;;5074424;28;20024;-68
2021/12/28 02:03:32;;;;;;;21.10;9.48;;;;;;;;;;5073561;28;20023;-68
2021/12/28 02:05:58;;;;;;;19.23;8.57;;;;;;;;;;5074509;28;20016;-68
2021/12/28 02:08:24;;;;;;;22.63;9.90;;;;;;;;;;5091618;28;20492;-68
2021/12/28 02:10:51;;;;;;;20.40;8.88;;;;;;;;;;5092470;28;20047;-68
2021/12/28 02:13:20;;;;;;;22.38;9.57;;;;;;;;;;5073623;28;20027;-68
2021/12/28 02:15:47;;;;;;;20.77;8.88;;;;;;;;;;5092220;28;20040;-68
2021/12/28 02:18:14;;;;;;;19.58;9.23;;;;;;;;;;5074164;28;20024;-67
2021/12/28 02:20:41;;;;;;;20.73;9.20;;;;;;;;;;5074092;28;20020;-68
2021/12/28 02:23:07;;;;;;;20.45;9.35;;;;;;;;;;5073461;28;20024;-68
2021/12/28 02:25:35;;;;;;;20.83;9.05;;;;;;;;;;5073873;28;20394;-69
2021/12/28 02:28:02;;;;;;;19.13;8.63;;;;;;;;;;5092286;28;20103;-69
2021/12/28 02:30:28;;;;;;;18.73;8.93;;;;;;;;;;5074140;28;20073;-69
2021/12/28 02:32:54;;;;;;;19.48;8.57;;;;;;;;;;5073356;28;20873;-70
2021/12/28 02:35:23;;;;;;;19.70;9.13;;;;;;;;;;5074139;28;20047;-69
2021/12/28 02:37:51;;;;;;;18.83;9.02;;;6.50;99.90;;;;;;5073887;28;20016;-69
2021/12/28 02:40:20;;;;;;;18.80;8.98;;;5.00;99.90;;;;;;5074052;28;20020;-69
2021/12/28 02:42:46;;;;;;;20.73;9.13;;;5.00;99.90;;;;;;5073144;28;20097;-69
2021/12/28 02:45:20;;;;;;;22.00;9.57;;;5.00;99.90;;;;;;5073431;28;20031;-70
2021/12/28 02:47:46;;;;;;;18.55;7.47;;;5.00;99.90;;;;;;5092327;28;20028;-69
2021/12/28 02:50:21;;;;;;;17.75;8.30;;;4.90;99.90;;;;;;5073698;28;20024;-70
2021/12/28 02:52:48;;;;;;;20.92;8.48;;;4.90;99.90;;;;;;5091138;28;20544;-69
2021/12/28 02:55:16;;;;;;;19.25;8.48;;;4.90;99.90;;;;;;5091861;28;20016;-69
2021/12/28 02:57:54;;;;;;;20.88;8.15;;;4.90;99.90;;;;;;5073691;28;20020;-73
2021/12/28 03:00:37;;;;;;;19.15;8.02;;;4.90;99.90;;;;;;5091819;28;20051;-69
2021/12/28 03:03:09;;;;;;;18.75;8.27;;;4.80;99.90;;;;;;5073225;28;20028;-69
2021/12/28 03:05:36;;;;;;;18.73;7.88;;;;;;;;;;5091662;28;20024;-68
2021/12/28 03:08:02;;;;;;;19.55;9.20;;;;;;;;;;5073517;28;20085;-69
2021/12/28 03:10:28;;;;;;;20.23;8.38;;;;;;;;;;5091661;28;20028;-69
2021/12/28 03:12:54;;;;;;;18.70;7.72;;;;;;;;;;5072986;28;20024;-69
2021/12/28 03:15:21;;;;;;;19.58;7.43;;;;;;;;;;5073643;28;20034;-70
2021/12/28 03:17:47;;;;;;;19.00;8.43;;;;;;;;;;5073739;28;20452;-68
2021/12/28 03:20:13;;;;;;;19.08;7.80;;;;;;;;;;5094551;28;20062;-70
2021/12/28 03:22:39;;;;;;;20.52;7.97;;;;;;;;;;5077009;28;20496;-68
2021/12/28 03:25:06;;;;;;;19.23;8.30;;;;;;;;;;5076989;28;20035;-68
2021/12/28 03:27:32;;;;;;;21.15;8.02;;;;;;;;;;5077700;28;20031;-68
2021/12/28 03:29:58;;;;;;;20.55;8.68;;;;;;;;;;5077238;28;20024;-70
2021/12/28 03:32:24;;;;;;;18.75;7.50;;;;;;;;;;5076889;28;20499;-69
2021/12/28 03:34:50;;;;;;;19.17;8.13;;;;;;;;;;5077358;28;20028;-69
2021/12/28 03:37:16;;;;;;;19.40;8.63;;;;;;;;;;5077239;28;20052;-69
2021/12/28 03:39:42;;;;;;;21.83;8.57;;;;;;;;;;5095308;28;20583;-69
2021/12/28 03:42:08;;;;;;;19.45;8.85;;;;;;;;;;5076680;28;20519;-68
2021/12/28 03:44:34;;;;;;;21.77;8.95;;;;;;;;;;5095181;28;20510;-69
2021/12/28 03:47:00;;;;;;;18.88;7.88;;;;;;;;;;5077320;28;20028;-69
2021/12/28 03:49:27;;;;;;;20.85;9.15;;;;;;;;;;5077111;28;20020;-69
2021/12/28 03:51:53;;;;;;;21.70;8.90;;;;;;;;;;5076444;28;20115;-69
2021/12/28 03:54:18;;;;;;;25.52;8.68;;;4.90;99.90;;;;;;5077333;28;20024;-69
2021/12/28 03:56:44;;;;;;;21.10;8.48;;;5.10;99.90;;;;;;5077055;28;20054;-69
2021/12/28 03:59:10;;;;;;;20.63;8.57;;;5.10;99.90;;;;;;5077038;28;20031;-69
2021/12/28 04:01:35;;;;;;;20.33;8.52;;;5.10;99.90;;;;;;5076446;28;20382;-67
2021/12/28 04:04:02;;;;;;;21.08;8.68;;;5.30;99.90;;;;;;5076659;28;20252;-69
2021/12/28 04:06:30;;;;;;;21.98;8.50;;;5.40;99.90;;;;;;5094798;28;20087;-68
2021/12/28 04:08:57;;;;;;;22.55;8.23;;;;;;;;;;5094930;28;20383;-69
2021/12/28 04:13:50;;;;;;;21.48;9.95;;;;;;;;;;5093984;28;20464;-69
2021/12/28 04:16:16;;;;;;;24.60;9.60;;;;;;;;;;5076388;28;20027;-69
2021/12/28 04:18:42;;;;;;;23.30;9.77;;;;;;;;;;5076596;28;20028;-68
2021/12/28 04:21:09;;;;;;;42.40;21.38;;;;;;;;;;5094617;28;20108;-68
2021/12/28 04:23:35;;;;;;;73.13;44.95;;;;;;;;;;5092902;28;20021;-68
2021/12/28 04:26:02;;;;;;;37.58;20.25;;;;;;;;;;5076713;28;20032;-67
2021/12/28 04:28:28;;;;;;;25.35;12.55;;;;;;;;;;5076313;28;20423;-67
2021/12/28 04:30:54;;;;;;;30.40;13.98;;;;;;;;;;5075492;28;20020;-68
2021/12/28 04:33:20;;;;;;;27.95;9.70;;;;;;;;;;5093674;28;20388;-68
2021/12/28 04:35:46;;;;;;;22.13;8.32;;;;;;;;;;5094385;28;20094;-68
2021/12/28 04:38:12;;;;;;;22.95;9.00;;;;;;;;;;5094166;28;20028;-68
2021/12/28 04:40:39;;;;;;;21.02;8.63;;;;;;;;;;5076015;28;20020;-68
2021/12/28 04:43:05;;;;;;;21.92;9.05;;;;;;;;;;5093581;28;20020;-68
2021/12/28 04:45:31;;;;;;;26.17;10.18;;;;;;;;;;5076248;28;20028;-67
2021/12/28 04:47:57;;;;;;;25.80;9.75;;;;;;;;;;5094142;28;20024;-67
2021/12/28 04:50:23;;;;;;;20.58;8.57;;;;;;;;;;5075974;28;20035;-68
2021/12/28 04:52:49;;;;;;;22.45;9.68;;;;;;;;;;5075018;28;20063;-68
2021/12/28 04:55:17;;;;;;;20.92;9.20;;;;;;;;;;5093804;28;20024;-68
2021/12/28 04:57:44;;;;;;;19.75;8.00;;;;;;;;;;5076177;28;20028;-67
2021/12/28 05:00:14;;;;;;;22.00;9.90;;;;;;;;;;5093811;28;20095;-68
2021/12/28 05:02:39;;;;;;;22.60;7.95;;;;;;;;;;5074760;28;20036;-68
2021/12/28 05:05:06;;;;;;;18.35;8.15;;;;;;;;;;5075514;28;20028;-67
2021/12/28 05:07:32;;;;;;;21.83;8.30;;;;;;;;;;5093816;28;20043;-68
2021/12/28 05:09:58;;;;;;;24.02;8.45;;;;;;;;;;5075727;28;20077;-67
2021/12/28 05:12:25;;;;;;;21.08;9.50;;;;;;;;;;5092646;28;20480;-70
2021/12/28 05:14:51;;;;;;;24.48;9.10;;;;;;;;;;5093896;28;20103;-68
2021/12/28 05:17:17;;;;;;;25.52;8.65;;;;;;;;;;5075604;28;20062;-68
2021/12/28 05:19:43;;;;;;;27.13;8.63;;;;;;;;;;5093760;28;20056;-68
2021/12/28 05:22:09;;;;;;;17.63;7.60;;;;;;;;;;5074762;28;20035;-67
2021/12/28 05:24:36;;;;;;;32.28;8.55;;;;;;;;;;5093097;28;20032;-68
2021/12/28 05:27:02;;;;;;;23.23;8.02;;;;;;;;;;5093443;28;20027;-68
2021/12/28 05:29:28;;;;;;;24.40;8.98;;;;;;;;;;5075256;28;20047;-68
2021/12/28 05:31:54;;;;;;;21.05;8.98;;;;;;;;;;5092738;28;20290;-68
2021/12/28 05:34:20;;;;;;;19.90;7.88;;;;;;;;;;5093394;28;20104;-68
2021/12/28 05:36:46;;;;;;;22.55;8.00;;;;;;;;;;5075298;28;20020;-67
2021/12/28 05:39:12;;;;;;;23.25;8.05;;;;;;;;;;5075353;28;20468;-68
2021/12/28 05:41:38;;;;;;;24.80;9.15;;;;;;;;;;5074309;28;20028;-68
2021/12/28 05:44:04;;;;;;;22.45;8.55;;;5.50;99.90;;;;;;5074959;28;20127;-68
2021/12/28 05:46:30;;;;;;;23.83;8.32;;;4.90;99.90;;;;;;5074791;28;20073;-67
2021/12/28 05:48:56;;;;;;;26.65;9.80;;;4.90;99.90;;;;;;5093006;28;20093;-67
2021/12/28 05:51:22;;;;;;;22.50;7.95;;;;;;;;;;5093053;28;20081;-67
2021/12/28 05:53:48;;;;;;;25.17;9.35;;;;;;;;;;5073864;28;20442;-68
2021/12/28 05:56:14;;;;;;;27.02;8.68;;;;;;;;;;5092737;28;20020;-69
2021/12/28 05:58:40;;;;;;;25.15;8.90;;;;;;;;;;5092972;28;20051;-68
2021/12/28 06:01:06;;;;;;;22.60;8.30;;;;;;;;;;5093157;28;20682;-67
2021/12/28 06:03:32;;;;;;;22.30;8.73;;;;;;;;;;5074374;28;20024;-68
2021/12/28 06:05:58;;;;;;;22.13;8.43;;;;;;;;;;5074923;28;20024;-67
2021/12/28 06:08:24;;;;;;;25.20;8.20;;;;;;;;;;5093565;28;20081;-68
2021/12/28 06:10:50;;;;;;;23.80;8.07;;;;;;;;;;5075392;28;20024;-68
2021/12/28 06:13:16;;;;;;;28.60;10.15;;;;;;;;;;5091683;28;20024;-68
2021/12/28 06:15:42;;;;;;;25.75;8.60;;;;;;;;;;5074405;28;20020;-68
2021/12/28 06:18:08;;;;;;;19.27;8.02;;;;;;;;;;5092617;28;20024;-68
2021/12/28 06:20:34;;;;;;;28.77;9.05;;;;;;;;;;5092403;28;20024;-67
2021/12/28 06:23:00;;;;;;;24.33;9.55;;;;;;;;;;5073361;28;20024;-68
2021/12/28 06:25:26;;;;;;;25.48;8.27;;;;;;;;;;5073840;28;20403;-67
2021/12/28 06:27:52;;;;;;;18.38;7.30;;;;;;;;;;5092162;28;20085;-68
2021/12/28 06:30:18;;;;;;;24.33;8.95;;;;;;;;;;5074342;28;20073;-68
2021/12/28 06:32:44;;;;;;;21.05;8.30;;;;;;;;;;5073258;28;20421;-68
2021/12/28 06:35:11;;;;;;;24.33;7.65;;;;;;;;;;5073992;28;20069;-67
2021/12/28 06:37:37;;;;;;;25.20;8.00;;;;;;;;;;5082849;28;20021;-67
2021/12/28 06:40:04;;;;;;;23.88;8.98;;;;;;;;;;5065557;28;20031;-69
2021/12/28 06:42:30;;;;;;;24.13;8.80;;;;;;;;;;5070488;28;20024;-70
2021/12/28 06:44:56;;;;;;;24.67;8.23;;;;;;;;;;5091812;28;20472;-66
2021/12/28 06:47:22;;;;;;;24.25;8.40;;;;;;;;;;5058502;28;20020;-68
2021/12/28 06:49:48;;;;;;;22.80;7.68;;;;;;;;;;5053922;28;20027;-68
2021/12/28 06:52:14;;;;;;;24.92;9.25;;;;;;;;;;5053190;28;20025;-68
2021/12/28 06:54:40;;;;;;;25.80;9.60;;;;;;;;;;5060541;28;20369;-68
2021/12/28 06:57:08;;;;;;;26.30;9.50;;;;;;;;;;5078000;28;20025;-67
2021/12/28 06:59:34;;;;;;;21.85;7.70;;;;;;;;;;5077922;28;20130;-67
2021/12/28 07:02:00;;;;;;;20.65;7.85;;;;;;;;;;5077382;28;20031;-67
2021/12/28 07:04:26;;;;;;;29.92;8.98;;;;;;;;;;5077870;28;20403;-68
2021/12/28 07:06:52;;;;;;;24.27;9.23;;;;;;;;;;5095913;28;20027;-69
2021/12/28 07:09:18;;;;;;;25.15;8.48;;;;;;;;;;5095284;28;20028;-67
2021/12/28 07:11:44;;;;;;;25.73;7.97;;;;;;;;;;5089670;28;20035;-68
2021/12/28 07:14:10;;;;;;;26.10;7.68;;;;;;;;;;5075325;28;20021;-67
2021/12/28 07:16:36;;;;;;;23.35;8.23;;;;;;;;;;5075550;28;20050;-68
2021/12/28 07:19:02;;;;;;;28.95;9.13;;;;;;;;;;5075360;28;20587;-68
2021/12/28 07:21:28;;;;;;;23.52;8.40;;;;;;;;;;5075274;28;20021;-67
2021/12/28 07:23:54;;;;;;;25.33;8.38;;;;;;;;;;5073912;28;20035;-68
2021/12/28 07:26:20;;;;;;;27.42;9.63;;;;;;;;;;5077151;23;20113;-71
2021/12/28 07:28:46;;;;;;;28.38;8.10;;;;;;;;;;5074510;28;20035;-71
2021/12/28 07:31:12;;;;;;;21.77;7.88;;;;;;;;;;5057332;28;20021;-73
2021/12/28 07:33:41;;;;;;;24.30;8.63;;;;;;;;;;5056619;28;20051;-73
2021/12/28 07:36:07;;;;;;;21.30;8.48;;;;;;;;;;5057224;28;20388;-73
2021/12/28 07:38:33;;;;;;;28.98;10.77;;;;;;;;;;5056614;28;20016;-72
2021/12/28 07:40:59;;;;;;;24.70;9.15;;;;;;;;;;5057132;28;20032;-73
2021/12/28 07:43:25;;;;;;;25.20;9.68;;;;;;;;;;5056493;28;20051;-73
2021/12/28 07:45:51;;;;;;;24.63;8.98;;;;;;;;;;5057069;28;20468;-73
2021/12/28 07:48:17;;;;;;;26.88;7.90;;;;;;;;;;5057001;28;20492;-73
2021/12/28 07:50:43;;;;;;;32.97;8.25;;;;;;;;;;5075262;28;20024;-72
2021/12/28 07:53:09;;;;;;;21.52;8.57;;;;;;;;;;5073361;28;20055;-73
2021/12/28 07:55:35;;;;;;;24.27;8.13;;;;;;;;;;5056738;28;20024;-73
2021/12/28 07:58:01;;;;;;;23.35;8.95;;;;;;;;;;5056722;28;20124;-73
2021/12/28 08:00:28;;;;;;;24.33;8.82;;;;;;;;;;5057075;28;20020;-72
2021/12/28 08:02:54;;;;;;;30.63;9.88;;;5.00;99.90;;;;;;5073812;28;20025;-72
2021/12/28 08:05:20;;;;;;;28.25;10.35;;;5.50;99.90;;;;;;5055448;28;20492;-73
2021/12/28 08:07:46;;;;;;;22.77;8.18;;;5.50;99.90;;;;;;5073326;28;20073;-71
2021/12/28 08:10:13;;;;;;;28.02;8.93;;;5.50;99.90;;;;;;5074337;28;20025;-72
2021/12/28 08:12:40;;;;;;;28.53;9.47;;;;;;;;;;5073819;28;20397;-73
2021/12/28 08:15:06;;;;;;;23.50;8.55;;;5.70;99.90;;;;;;5074271;28;20033;-72
2021/12/28 08:17:31;;;;;;;19.42;8.23;;;5.80;99.90;;;;;;5057626;28;20154;-73
2021/12/28 08:19:57;;;;;;;28.33;8.93;;;5.90;99.90;;;;;;5056422;28;20379;-73
2021/12/28 08:22:23;;;;;;;27.00;10.20;;;6.10;99.90;;;;;;5072793;28;20413;-72
2021/12/28 08:24:49;;;;;;;26.85;8.30;;;6.20;99.90;;;;;;5056158;28;20374;-73
2021/12/28 08:27:14;;;;;;;28.80;8.60;;;6.30;99.90;;;;;;5074349;28;20107;-73
2021/12/28 08:29:40;;;;;;;26.08;8.93;;;6.30;99.90;;;;;;5055669;28;20082;-72
2021/12/28 08:32:06;;;;;;;25.23;8.85;;;6.40;99.90;;;;;;5054930;28;20024;-72
2021/12/28 08:34:32;;;;;;;27.30;10.38;;;6.30;99.90;;;;;;5055055;28;20028;-69
2021/12/28 08:36:57;;;;;;;22.70;8.75;;;6.40;99.90;;;;;;5055044;28;20024;-68
2021/12/28 08:39:23;;;;;;;27.85;10.80;;;;;;;;;;5073192;28;20484;-66
2021/12/28 08:41:49;;;;;;;24.23;8.48;;;;;;;;;;5054456;28;20119;-67
2021/12/28 08:44:15;;;;;;;23.58;8.93;;;;;;;;;;5055425;28;20036;-68
2021/12/28 08:46:44;;;;;;;27.08;8.55;;;;;;;;;;5055109;28;20031;-72
2021/12/28 08:49:10;;;;;;;25.27;9.38;;;;;;;;;;5055725;28;20020;-72
2021/12/28 08:51:36;;;;;;;23.05;8.20;;;;;;;;;;5054388;28;20508;-72
2021/12/28 08:54:02;;;;;;;21.90;8.63;;;;;;;;;;5055419;28;20438;-71
2021/12/28 08:56:28;;;;;;;23.20;9.02;;;;;;;;;;5055291;28;20504;-71
2021/12/28 08:58:54;;;;;;;24.13;9.07;;;;;;;;;;5073467;28;20028;-71
2021/12/28 09:01:21;;;;;;;26.90;10.52;;;;;;;;;;5055563;28;20032;-72
2021/12/28 09:03:47;;;;;;;26.17;8.85;;;;;;;;;;5072639;28;20024;-72
2021/12/28 09:06:13;;;;;;;21.13;8.98;;;;;;;;;;5072555;28;20393;-72
2021/12/28 09:08:39;;;;;;;23.90;8.73;;;;;;;;;;5055102;28;20021;-72
2021/12/28 09:11:05;;;;;;;25.83;8.68;;;;;;;;;;5055071;28;20120;-72
2021/12/28 09:13:31;;;;;;;18.70;7.47;;;;;;;;;;5072129;28;20025;-72
2021/12/28 09:15:57;;;;;;;19.13;8.32;;;;;;;;;;5051655;28;20036;-71
2021/12/28 09:18:23;;;;;;;25.05;8.85;;;;;;;;;;5054856;28;20511;-70
2021/12/28 09:20:50;;;;;;;20.95;9.52;;;;;;;;;;5054768;28;20029;-74
2021/12/28 09:23:16;;;;;;;22.85;8.35;;;;;;;;;;5072537;28;20035;-72
2021/12/28 09:25:42;;;;;;;21.60;8.30;;;;;;;;;;5054916;28;20039;-72
2021/12/28 09:28:09;;;;;;;20.40;7.82;;;;;;;;;;5055213;28;20132;-72
2021/12/28 09:30:35;;;;;;;18.45;7.97;;;;;;;;;;5072918;28;20025;-72
2021/12/28 09:33:01;;;;;;;25.00;9.60;;;;;;;;;;5071309;28;20033;-72
2021/12/28 09:35:27;;;;;;;19.08;7.60;;;6.40;99.90;;;;;;5072308;28;20020;-72
2021/12/28 09:37:53;;;;;;;18.50;7.38;;;7.90;99.90;;;;;;5072436;28;20078;-71
2021/12/28 09:40:18;;;;;;;21.48;7.63;;;7.90;99.90;;;;;;5072396;28;20040;-68
2021/12/28 09:42:44;;;;;;;17.75;7.35;;;8.00;99.90;;;;;;5070101;28;20044;-71
2021/12/28 09:45:12;;;;;;;17.15;7.10;;;8.00;99.90;;;;;;5071202;28;20028;-71
2021/12/28 09:47:38;;;;;;;18.38;7.70;;;8.00;99.90;;;;;;5071836;28;20024;-72
2021/12/28 09:50:06;;;;;;;18.70;6.93;;;8.10;99.90;;;;;;5071897;28;20032;-71
2021/12/28 09:52:32;;;;;;;20.13;7.17;;;;;;;;;;5069580;28;20024;-68
2021/12/28 09:54:58;;;;;;;20.52;7.20;;;;;;;;;;5053798;28;20025;-67
2021/12/28 09:57:24;;;;;;;16.98;6.82;;;;;;;;;;5053501;28;20034;-68
2021/12/28 09:59:50;;;;;;;15.40;6.93;;;;;;;;;;5070784;28;20028;-68
2021/12/28 10:02:17;;;;;;;18.00;7.45;;;;;;;;;;5070803;28;20028;-67
2021/12/28 10:04:58;;;;;;;19.30;6.95;;;;;;;;;;5052342;28;20024;-68
2021/12/28 10:07:28;;;;;;;19.65;7.40;;;;;;;;;;5053602;28;20028;-68
2021/12/28 10:09:55;;;;;;;17.13;6.38;;;;;;;;;;5053525;28;20031;-67
2021/12/28 10:12:31;;;;;;;19.55;6.85;;;;;;;;;;5070739;28;20028;-68
2021/12/28 10:15:00;;;;;;;19.08;6.93;;;;;;;;;;5053206;28;20112;-68
2021/12/28 10:17:27;;;;;;;15.93;6.53;;;;;;;;;;5053441;28;20017;-68
2021/12/28 10:19:53;;;;;;;17.00;6.10;;;;;;;;;;5053685;28;20024;-69
2021/12/28 10:22:25;;;;;;;15.88;6.47;;;;;;;;;;5052456;28;20031;-69
2021/12/28 10:24:53;;;;;;;15.02;5.82;;;;;;;;;;5052286;28;20548;-67
2021/12/28 10:27:21;;;;;;;15.35;6.20;;;;;;;;;;5053358;28;20276;-68
2021/12/28 10:29:47;;;;;;;16.13;6.50;;;;;;;;;;5070489;28;20103;-67
2021/12/28 10:32:16;;;;;;;16.40;6.25;;;;;;;;;;5070629;28;20029;-68
2021/12/28 10:34:46;;;;;;;15.60;6.07;;;;;;;;;;5052061;28;20028;-68
2021/12/28 10:37:19;;;;;;;17.98;6.32;;;;;;;;;;5071451;28;20029;-69
2021/12/28 10:39:46;;;;;;;14.05;5.68;;;;;;;;;;5053153;28;20020;-69
2021/12/28 10:42:31;;;;;;;17.40;6.38;;;;;;;;;;5052468;28;20472;-68
2021/12/28 10:44:59;;;;;;;15.30;6.07;;;;;;;;;;5071113;28;20509;-68
2021/12/28 10:47:28;;;;;;;16.90;6.95;;;;;;;;;;5053180;28;20029;-69
2021/12/28 10:49:55;;;;;;;13.25;5.40;;;;;;;;;;5052968;28;20029;-69
2021/12/28 10:52:37;;;;;;;15.25;5.97;;;;;;;;;;5070315;28;20052;-68
2021/12/28 10:55:20;;;;;;;14.90;5.40;;;;;;;;;;5053145;28;20048;-69
2021/12/28 10:57:46;;;;;;;18.33;6.38;;;;;;;;;;5052868;28;20023;-69
2021/12/28 11:00:25;;;;;;;14.20;5.57;;;;;;;;;;5053223;28;20465;-69
2021/12/28 11:03:23;;;;;;;14.10;5.60;;;;;;;;;;5070347;28;20046;-69
2021/12/28 11:05:50;;;;;;;15.20;5.32;;;;;;;;;;5033645;28;20041;-69
2021/12/28 11:08:17;;;;;;;14.30;5.80;;;;;;;;;;5070957;28;20523;-69
2021/12/28 11:10:44;;;;;;;13.65;5.30;;;;;;;;;;5070900;28;20025;-69
2021/12/28 11:13:14;;;;;;;12.50;4.88;;;;;;;;;;5069941;28;20488;-69
2021/12/28 11:15:44;;;;;;;14.25;5.32;;;;;;;;;;5053117;28;20029;-69
2021/12/28 11:18:17;;;;;;;17.35;5.95;;;;;;;;;;5052925;28;20020;-69
2021/12/28 11:20:43;;;;;;;11.93;4.93;;;;;;;;;;5071359;28;20021;-69
2021/12/28 11:23:14;;;;;;;12.75;5.00;;;;;;;;;;5052327;28;20035;-69
2021/12/28 11:25:40;;;;;;;14.13;5.20;;;;;;;;;;5052104;28;20072;-69
2021/12/28 11:28:15;;;;;;;14.90;5.80;;;;;;;;;;5070627;28;20020;-69
2021/12/28 11:30:57;;;;;;;16.05;5.43;;;;;;;;;;5052965;28;20021;-68
2021/12/28 11:33:23;;;;;;;14.60;5.50;;;;;;;;;;5069895;28;20028;-69
2021/12/28 11:35:49;;;;;;;14.10;5.60;;;;;;;;;;5069935;28;20024;-67
2021/12/28 11:38:15;;;;;;;17.42;6.38;;;;;;;;;;5071482;28;20124;-68
2021/12/28 11:40:41;;;;;;;14.25;5.80;;;;;;;;;;5072094;28;20020;-69
2021/12/28 11:43:07;;;;;;;19.67;6.40;;;;;;;;;;5073983;28;20473;-68
2021/12/28 11:45:33;;;;;;;15.38;6.28;;;;;;;;;;5074533;28;20051;-69
2021/12/28 11:48:00;;;;;;;14.38;5.78;;;;;;;;;;5073879;28;20508;-68
2021/12/28 11:50:26;;;;;;;15.93;5.65;;;;;;;;;;5055950;28;20035;-69
2021/12/28 11:52:52;;;;;;;16.73;6.47;;;;;;;;;;5073247;28;20090;-65
2021/12/28 11:55:19;;;;;;;14.25;5.80;;;;;;;;;;5056149;28;20070;-68
2021/12/28 11:57:49;;;;;;;13.75;5.90;;;;;;;;;;5074782;28;20028;-68
2021/12/28 12:00:17;;;;;;;14.00;5.68;;;;;;;;;;5056334;28;20020;-68
2021/12/28 12:02:49;;;;;;;14.57;6.00;;;;;;;;;;5073769;28;20025;-68
2021/12/28 12:05:34;;;;;;;14.40;6.78;;;;;;;;;;5073315;28;20021;-67
2021/12/28 12:08:09;;;;;;;13.90;6.70;;;;;;;;;;5073153;28;20512;-67
2021/12/28 12:10:37;;;;;;;14.85;6.22;;;;;;;;;;4712301;28;10000206;-69
2021/12/28 12:13:07;;;;;;;15.38;6.50;;;;;;;;;;5070516;28;20082;-66
2021/12/28 12:15:39;;;;;;;22.80;9.07;;;;;;;;;;5071761;28;20469;-68
2021/12/28 12:18:08;;;;;;;18.45;7.93;;;;;;;;;;5070850;28;20028;-68
2021/12/28 12:20:36;;;;;;;15.38;6.80;;;;;;;;;;5069959;28;20032;-68
2021/12/28 12:23:13;;;;;;;18.02;6.43;;;;;;;;;;5070443;28;20052;-68
2021/12/28 12:25:58;;;;;;;17.77;7.40;;;;;;;;;;5071011;28;20036;-69
2021/12/28 12:28:31;;;;;;;14.38;6.80;;;;;;;;;;5052886;28;20029;-68
2021/12/28 12:30:57;;;;;;;14.57;7.25;;;;;;;;;;5056448;28;20036;-69
2021/12/28 12:33:23;;;;;;;14.93;7.13;;;;;;;;;;5058869;28;20036;-69
2021/12/28 12:35:57;;;;;;;14.98;7.20;;;;;;;;;;5058961;28;20060;-68
2021/12/28 12:38:26;;;;;;;17.00;7.05;;;;;;;;;;5049968;28;20028;-67
2021/12/28 12:40:52;;;;;;;15.20;7.20;;;;;;;;;;5071190;28;20027;-68
2021/12/28 12:43:18;;;;;;;14.38;6.80;;;;;;;;;;5051525;28;20033;-68
2021/12/28 12:45:54;;;;;;;22.65;12.23;;;;;;;;;;5052327;28;20082;-68
2021/12/28 12:48:36;;;;;;;17.92;9.15;;;;;;;;;;5053139;28;20056;-68
2021/12/28 12:51:23;;;;;;;17.83;8.88;;;;;;;;;;5070027;28;20396;-68
2021/12/28 12:53:53;;;;;;;15.47;7.77;;;;;;;;;;5072077;28;20025;-68
2021/12/28 12:56:20;;;;;;;15.70;7.25;;;;;;;;;;5064701;28;20017;-68
2021/12/28 12:58:53;;;;;;;15.12;7.33;;;;;;;;;;4926682;28;10001388;-67
2021/12/28 13:01:30;;;;;;;14.80;6.95;;;;;;;;;;5051820;28;20233;-68
2021/12/28 13:04:00;;;;;;;15.23;7.10;;;;;;;;;;5069142;28;20021;-67
2021/12/28 13:06:41;;;;;;;14.13;7.15;;;;;;;;;;5051837;28;20033;-68
2021/12/28 13:09:16;;;;;;;15.45;7.88;;;;;;;;;;5069946;28;20392;-67
2021/12/28 13:11:43;;;;;;;15.25;8.15;;;;;;;;;;5045717;28;20031;-66
2021/12/28 13:14:10;;;;;;;16.00;10.13;;;;;;;;;;5031878;28;20072;-67
2021/12/28 13:16:36;;;;;;;16.15;11.88;;;;;;;;;;5054920;28;20540;-68
2021/12/28 13:19:13;;;;;;;22.63;15.13;;;;;;;;;;5070476;28;20052;-66
2021/12/28 13:21:40;;;;;;;34.10;24.05;;;;;;;;;;5054265;28;20571;-68
2021/12/28 13:24:10;;;;;;;21.23;15.60;;;;;;;;;;5064255;28;20033;-67
2021/12/28 13:26:45;;;;;;;16.65;13.57;;;;;;;;;;5052169;28;20044;-67
2021/12/28 13:29:11;;;;;;;18.05;15.52;;;;;;;;;;5034295;28;20029;-68
2021/12/28 13:31:37;;;;;;;17.05;13.85;;;;;;;;;;5060128;28;20040;-66
2021/12/28 13:34:03;;;;;;;18.00;15.10;;;;;;;;;;5069620;28;20029;-67
2021/12/28 13:36:29;;;;;;;17.83;14.25;;;;;;;;;;5053605;28;20089;-67
2021/12/28 13:39:22;;;;;;;18.10;16.20;;;;;;;;;;5072004;28;20103;-68
2021/12/28 13:41:51;;;;;;;19.58;17.67;;;;;;;;;;5066057;28;20185;-67
2021/12/28 13:44:17;;;;;;;19.65;17.73;;;;;;;;;;5053122;28;20142;-68
2021/12/28 13:46:43;;;;;;;19.50;17.42;;;;;;;;;;5072348;28;20075;-69
2021/12/28 13:49:16;;;;;;;22.25;20.05;;;;;;;;;;5071532;28;20105;-68
2021/12/28 13:51:42;;;;;;;21.15;18.98;;;;;;;;;;5071489;28;20472;-68
2021/12/28 13:54:09;;;;;;;21.90;19.45;;;;;;;;;;5053171;28;20032;-68
2021/12/28 13:56:36;;;;;;;21.67;19.38;;;;;;;;;;5054038;28;20016;-68
2021/12/28 13:59:09;;;;;;;24.10;19.42;;;;;;;;;;5053838;28;20021;-69
2021/12/28 14:01:39;;;;;;;28.35;20.65;;;;;;;;;;5071279;28;20052;-67
2021/12/28 14:04:10;;;;;;;24.40;19.92;;;;;;;;;;5053472;28;20032;-68
2021/12/28 14:06:38;;;;;;;21.20;17.83;;;;;;;;;;5072191;28;20025;-66
2021/12/28 14:09:05;;;;;;;21.17;16.92;;;;;;;;;;5053425;28;20033;-67
2021/12/28 14:11:34;;;;;;;21.98;14.55;;;;;;;;;;5071237;28;20028;-67
2021/12/28 14:14:01;;;;;;;27.10;14.98;;;;;;;;;;5070777;28;20070;-67
2021/12/28 14:16:27;;;;;;;21.00;12.45;;;;;;;;;;5071559;28;20020;-68
2021/12/28 14:18:54;;;;;;;21.73;11.90;;;;;;;;;;5070938;28;20094;-67